createdAt,value
2018-09-06T00:00:31.194Z,21.27
2018-09-06T00:01:31.257Z,21.27
2018-09-06T00:02:31.551Z,21.26
2018-09-06T00:03:31.296Z,21.26
2018-09-06T00:04:31.906Z,21.26
2018-09-06T00:05:31.310Z,21.26
2018-09-06T00:06:31.468Z,21.26
2018-09-06T00:07:31.213Z,21.26
2018-09-06T00:08:31.449Z,21.27
2018-09-06T00:09:31.281Z,21.26
2018-09-06T00:10:31.419Z,21.27
2018-09-06T00:11:31.266Z,21.26
2018-09-06T00:12:31.319Z,21.25
2018-09-06T00:13:31.582Z,21.26
2018-09-06T00:14:31.539Z,21.25
2018-09-06T00:15:31.295Z,21.26
2018-09-06T00:16:31.534Z,21.25
2018-09-06T00:17:31.210Z,21.26
2018-09-06T00:18:31.513Z,21.25
2018-09-06T00:19:31.310Z,21.25
2018-09-06T00:20:31.610Z,21.26
2018-09-06T00:21:31.155Z,21.25
2018-09-06T00:22:31.420Z,21.26
2018-09-06T00:23:31.251Z,21.25
2018-09-06T00:24:31.331Z,21.25
2018-09-06T00:25:31.232Z,21.26
2018-09-06T00:26:31.380Z,21.25
2018-09-06T00:27:31.208Z,21.26
2018-09-06T00:28:31.480Z,21.25
2018-09-06T00:29:31.168Z,21.26
2018-09-06T00:30:31.453Z,21.26
2018-09-06T00:31:31.406Z,21.25
2018-09-06T00:32:31.486Z,21.26
2018-09-06T00:33:31.206Z,21.25
2018-09-06T00:34:31.349Z,21.26
2018-09-06T00:35:31.359Z,21.26
2018-09-06T00:36:31.519Z,21.25
2018-09-06T00:37:31.328Z,21.26
2018-09-06T00:38:31.506Z,21.25
2018-09-06T00:39:31.358Z,21.25
2018-09-06T00:40:31.359Z,21.25
2018-09-06T00:41:31.301Z,21.25
2018-09-06T00:42:31.284Z,21.25
2018-09-06T00:43:31.207Z,21.25
2018-09-06T00:44:31.708Z,21.25
2018-09-06T00:45:31.216Z,21.25
2018-09-06T00:46:31.419Z,21.25
2018-09-06T00:47:31.240Z,21.24
2018-09-06T00:48:31.467Z,21.25
2018-09-06T00:49:31.225Z,21.25
2018-09-06T00:50:31.531Z,21.24
2018-09-06T00:51:31.348Z,21.24
2018-09-06T00:52:31.332Z,21.24
2018-09-06T00:53:31.319Z,21.24
2018-09-06T00:54:31.500Z,21.24
2018-09-06T00:55:31.244Z,21.24
2018-09-06T00:56:31.312Z,21.24
2018-09-06T00:57:31.150Z,21.24
2018-09-06T00:58:31.274Z,21.24
2018-09-06T00:59:31.269Z,21.24
2018-09-06T01:00:31.433Z,21.24
2018-09-06T01:01:31.260Z,21.24
2018-09-06T01:02:31.274Z,21.24
2018-09-06T01:03:31.522Z,21.24
2018-09-06T01:04:31.382Z,21.24
2018-09-06T01:05:31.313Z,21.24
2018-09-06T01:06:31.463Z,21.24
2018-09-06T01:07:31.228Z,21.24
2018-09-06T01:08:31.378Z,21.24
2018-09-06T01:09:31.182Z,21.24
2018-09-06T01:10:31.349Z,21.24
2018-09-06T01:11:31.206Z,21.24
2018-09-06T01:12:31.464Z,21.24
2018-09-06T01:13:31.521Z,21.24
2018-09-06T01:14:31.455Z,21.24
2018-09-06T01:15:31.347Z,21.24
2018-09-06T01:16:31.409Z,21.24
2018-09-06T01:17:31.287Z,21.24
2018-09-06T01:18:31.302Z,21.23
2018-09-06T01:19:31.304Z,21.24
2018-09-06T01:20:31.370Z,21.23
2018-09-06T01:21:31.210Z,21.23
2018-09-06T01:22:31.502Z,21.23
2018-09-06T01:23:31.326Z,21.23
2018-09-06T01:24:31.328Z,21.23
2018-09-06T01:25:31.360Z,21.23
2018-09-06T01:26:31.372Z,21.23
2018-09-06T01:27:31.182Z,21.23
2018-09-06T01:28:31.415Z,21.23
2018-09-06T01:29:31.175Z,21.23
2018-09-06T01:30:31.453Z,21.23
2018-09-06T01:31:31.285Z,21.22
2018-09-06T01:32:31.319Z,21.23
2018-09-06T01:33:31.441Z,21.23
2018-09-06T01:34:31.455Z,21.23
2018-09-06T01:35:31.261Z,21.23
2018-09-06T01:36:31.343Z,21.22
2018-09-06T01:37:31.258Z,21.23
2018-09-06T01:38:31.874Z,21.23
2018-09-06T01:39:31.284Z,21.23
2018-09-06T01:40:31.292Z,21.22
2018-09-06T01:41:31.299Z,21.22
2018-09-06T01:42:31.456Z,21.22
2018-09-06T01:43:31.218Z,21.22
2018-09-06T01:44:31.324Z,21.22
2018-09-06T01:45:31.443Z,21.22
2018-09-06T01:46:31.537Z,21.21
2018-09-06T01:47:31.178Z,21.22
2018-09-06T01:48:31.442Z,21.22
2018-09-06T01:49:31.185Z,21.22
2018-09-06T01:50:31.801Z,21.22
2018-09-06T01:51:31.576Z,21.22
2018-09-06T01:52:31.312Z,21.22
2018-09-06T01:53:31.318Z,21.22
2018-09-06T01:54:31.490Z,21.21
2018-09-06T01:55:31.274Z,21.22
2018-09-06T01:56:31.317Z,21.22
2018-09-06T01:57:31.554Z,21.21
2018-09-06T01:58:31.625Z,21.21
2018-09-06T01:59:31.346Z,21.21
2018-09-06T02:00:31.565Z,21.21
2018-09-06T02:01:31.181Z,21.21
2018-09-06T02:02:31.333Z,21.21
2018-09-06T02:03:31.253Z,21.21
2018-09-06T02:04:31.398Z,21.21
2018-09-06T02:05:31.241Z,21.21
2018-09-06T02:06:31.472Z,21.21
2018-09-06T02:07:31.308Z,21.21
2018-09-06T02:08:31.337Z,21.21
2018-09-06T02:09:31.645Z,21.21
2018-09-06T02:10:31.257Z,21.21
2018-09-06T02:11:31.236Z,21.21
2018-09-06T02:12:31.419Z,21.21
2018-09-06T02:13:31.245Z,21.21
2018-09-06T02:14:31.547Z,21.21
2018-09-06T02:15:31.254Z,21.21
2018-09-06T02:16:31.484Z,21.21
2018-09-06T02:17:31.273Z,21.21
2018-09-06T02:18:31.421Z,21.21
2018-09-06T02:19:31.328Z,21.21
2018-09-06T02:20:31.481Z,21.21
2018-09-06T02:21:31.290Z,21.2
2018-09-06T02:22:31.432Z,21.2
2018-09-06T02:23:31.225Z,21.21
2018-09-06T02:24:32.249Z,21.2
2018-09-06T02:25:31.240Z,21.2
2018-09-06T02:26:31.507Z,21.2
2018-09-06T02:27:31.259Z,21.2
2018-09-06T02:28:31.448Z,21.2
2018-09-06T02:29:31.262Z,21.2
2018-09-06T02:30:31.452Z,21.2
2018-09-06T02:31:31.462Z,21.2
2018-09-06T02:32:31.524Z,21.2
2018-09-06T02:33:31.348Z,21.2
2018-09-06T02:34:31.322Z,21.2
2018-09-06T02:35:31.431Z,21.2
2018-09-06T02:36:31.481Z,21.19
2018-09-06T02:37:31.357Z,21.19
2018-09-06T02:38:31.412Z,21.2
2018-09-06T02:39:31.210Z,21.19
2018-09-06T02:40:31.727Z,21.19
2018-09-06T02:41:31.330Z,21.19
2018-09-06T02:42:31.328Z,21.19
2018-09-06T02:43:31.260Z,21.19
2018-09-06T02:44:31.319Z,21.19
2018-09-06T02:45:31.201Z,21.19
2018-09-06T02:46:31.571Z,21.19
2018-09-06T02:47:31.165Z,21.2
2018-09-06T02:48:31.461Z,21.19
2018-09-06T02:49:31.183Z,21.19
2018-09-06T02:50:31.623Z,21.19
2018-09-06T02:51:31.360Z,21.19
2018-09-06T02:52:31.573Z,21.19
2018-09-06T02:53:31.255Z,21.19
2018-09-06T02:54:31.566Z,21.19
2018-09-06T02:55:31.342Z,21.19
2018-09-06T02:56:31.419Z,21.19
2018-09-06T02:57:31.643Z,21.18
2018-09-06T02:58:31.324Z,21.19
2018-09-06T02:59:31.275Z,21.19
2018-09-06T03:00:31.312Z,21.19
2018-09-06T03:01:31.130Z,21.19
2018-09-06T03:02:31.390Z,21.19
2018-09-06T03:03:31.150Z,21.18
2018-09-06T03:04:31.563Z,21.18
2018-09-06T03:05:31.306Z,21.18
2018-09-06T03:06:31.425Z,21.18
2018-09-06T03:07:31.767Z,21.19
2018-09-06T03:08:31.453Z,21.19
2018-09-06T03:09:31.478Z,21.18
2018-09-06T03:10:31.430Z,21.18
2018-09-06T03:11:31.177Z,21.19
2018-09-06T03:12:31.457Z,21.18
2018-09-06T03:13:31.287Z,21.18
2018-09-06T03:14:31.602Z,21.18
2018-09-06T03:15:31.820Z,21.18
2018-09-06T03:16:31.415Z,21.18
2018-09-06T03:17:31.235Z,21.18
2018-09-06T03:18:31.368Z,21.18
2018-09-06T03:19:31.153Z,21.18
2018-09-06T03:20:31.600Z,21.18
2018-09-06T03:21:31.301Z,21.18
2018-09-06T03:22:31.352Z,21.18
2018-09-06T03:23:31.378Z,21.18
2018-09-06T03:24:31.388Z,21.18
2018-09-06T03:25:31.320Z,21.18
2018-09-06T03:26:31.443Z,21.18
2018-09-06T03:27:31.161Z,21.18
2018-09-06T03:28:31.411Z,21.18
2018-09-06T03:29:31.300Z,21.18
2018-09-06T03:30:31.775Z,21.18
2018-09-06T03:31:31.243Z,21.18
2018-09-06T03:32:31.375Z,21.18
2018-09-06T03:33:31.243Z,21.18
2018-09-06T03:34:31.455Z,21.18
2018-09-06T03:35:31.553Z,21.18
2018-09-06T03:36:31.427Z,21.18
2018-09-06T03:37:31.791Z,21.18
2018-09-06T03:38:31.490Z,21.18
2018-09-06T03:39:31.354Z,21.18
2018-09-06T03:40:31.189Z,21.18
2018-09-06T03:41:31.332Z,21.18
2018-09-06T03:42:31.432Z,21.18
2018-09-06T03:43:31.292Z,21.18
2018-09-06T03:44:31.437Z,21.18
2018-09-06T03:45:31.330Z,21.18
2018-09-06T03:46:31.459Z,21.18
2018-09-06T03:47:31.477Z,21.18
2018-09-06T03:48:31.472Z,21.18
2018-09-06T03:49:31.381Z,21.18
2018-09-06T03:50:32.032Z,21.18
2018-09-06T03:51:31.426Z,21.18
2018-09-06T03:52:31.529Z,21.18
2018-09-06T03:53:31.225Z,21.18
2018-09-06T03:54:31.559Z,21.18
2018-09-06T03:55:31.297Z,21.17
2018-09-06T03:56:31.223Z,21.18
2018-09-06T03:57:31.731Z,21.18
2018-09-06T03:58:31.596Z,21.18
2018-09-06T03:59:31.245Z,21.18
2018-09-06T04:00:31.580Z,21.18
2018-09-06T04:01:31.305Z,21.18
2018-09-06T04:02:31.469Z,21.18
2018-09-06T04:03:31.328Z,21.18
2018-09-06T04:04:31.256Z,21.18
2018-09-06T04:05:31.250Z,21.18
2018-09-06T04:06:31.381Z,21.17
2018-09-06T04:07:31.395Z,21.17
2018-09-06T04:08:31.342Z,21.18
2018-09-06T04:09:31.241Z,21.18
2018-09-06T04:10:31.330Z,21.17
2018-09-06T04:11:31.207Z,21.17
2018-09-06T04:12:31.249Z,21.17
2018-09-06T04:13:31.197Z,21.17
2018-09-06T04:14:31.328Z,21.18
2018-09-06T04:15:31.170Z,21.17
2018-09-06T04:16:31.565Z,21.17
2018-09-06T04:17:31.200Z,21.17
2018-09-06T04:18:31.958Z,21.17
2018-09-06T04:19:31.216Z,21.17
2018-09-06T04:20:31.398Z,21.17
2018-09-06T04:21:31.148Z,21.17
2018-09-06T04:22:31.820Z,21.17
2018-09-06T04:23:31.184Z,21.17
2018-09-06T04:24:31.448Z,21.17
2018-09-06T04:25:31.333Z,21.17
2018-09-06T04:26:31.307Z,21.17
2018-09-06T04:27:31.415Z,21.17
2018-09-06T04:28:31.715Z,21.17
2018-09-06T04:29:31.377Z,21.17
2018-09-06T04:30:31.360Z,21.17
2018-09-06T04:31:31.316Z,21.17
2018-09-06T04:32:31.452Z,21.17
2018-09-06T04:33:31.382Z,21.17
2018-09-06T04:34:31.580Z,21.17
2018-09-06T04:35:31.674Z,21.17
2018-09-06T04:36:31.324Z,21.17
2018-09-06T04:37:31.321Z,21.17
2018-09-06T04:38:31.361Z,21.17
2018-09-06T04:39:31.139Z,21.17
2018-09-06T04:40:31.318Z,21.17
2018-09-06T04:41:31.347Z,21.17
2018-09-06T04:42:31.434Z,21.17
2018-09-06T04:43:31.114Z,21.17
2018-09-06T04:44:31.443Z,21.17
2018-09-06T04:45:31.291Z,21.17
2018-09-06T04:46:31.570Z,21.17
2018-09-06T04:47:31.177Z,21.17
2018-09-06T04:48:31.282Z,21.16
2018-09-06T04:49:31.222Z,21.16
2018-09-06T04:50:31.593Z,21.16
2018-09-06T04:51:31.507Z,21.16
2018-09-06T04:52:31.409Z,21.16
2018-09-06T04:53:31.226Z,21.16
2018-09-06T04:54:31.156Z,21.16
2018-09-06T04:55:31.334Z,21.16
2018-09-06T04:56:31.467Z,21.17
2018-09-06T04:57:31.478Z,21.17
2018-09-06T04:58:31.843Z,21.16
2018-09-06T04:59:31.125Z,21.17
2018-09-06T05:00:31.455Z,21.16
2018-09-06T05:01:31.424Z,21.16
2018-09-06T05:02:31.212Z,21.17
2018-09-06T05:03:31.518Z,21.17
2018-09-06T05:04:31.361Z,21.17
2018-09-06T05:05:31.559Z,21.17
2018-09-06T05:06:31.259Z,21.17
2018-09-06T05:07:31.203Z,21.17
2018-09-06T05:08:31.448Z,21.18
2018-09-06T05:09:31.228Z,21.17
2018-09-06T05:10:31.420Z,21.17
2018-09-06T05:11:31.161Z,21.17
2018-09-06T05:12:31.333Z,21.17
2018-09-06T05:13:31.210Z,21.17
2018-09-06T05:14:31.504Z,21.17
2018-09-06T05:15:31.172Z,21.17
2018-09-06T05:16:31.286Z,21.17
2018-09-06T05:17:31.460Z,21.17
2018-09-06T05:18:31.482Z,21.17
2018-09-06T05:19:31.203Z,21.17
2018-09-06T05:20:31.513Z,21.17
2018-09-06T05:21:31.198Z,21.17
2018-09-06T05:22:31.297Z,21.17
2018-09-06T05:23:31.457Z,21.17
2018-09-06T05:24:31.419Z,21.17
2018-09-06T05:25:31.241Z,21.17
2018-09-06T05:26:31.449Z,21.17
2018-09-06T05:27:31.215Z,21.17
2018-09-06T05:28:31.395Z,21.17
2018-09-06T05:29:31.229Z,21.17
2018-09-06T05:30:31.328Z,21.17
2018-09-06T05:31:31.247Z,21.17
2018-09-06T05:32:31.956Z,21.17
2018-09-06T05:33:31.439Z,21.17
2018-09-06T05:34:31.305Z,21.17
2018-09-06T05:35:31.182Z,21.17
2018-09-06T05:36:32.325Z,21.17
2018-09-06T05:37:31.098Z,21.17
2018-09-06T05:38:31.294Z,21.17
2018-09-06T05:39:31.404Z,21.17
2018-09-06T05:40:31.472Z,21.17
2018-09-06T05:41:31.307Z,21.17
2018-09-06T05:42:31.610Z,21.17
2018-09-06T05:43:31.493Z,21.17
2018-09-06T05:44:31.249Z,21.17
2018-09-06T05:45:31.203Z,21.17
2018-09-06T05:46:31.444Z,21.17
2018-09-06T05:47:31.966Z,21.17
2018-09-06T05:48:31.725Z,21.17
2018-09-06T05:49:31.343Z,21.17
2018-09-06T05:50:31.401Z,21.17
2018-09-06T05:51:31.244Z,21.17
2018-09-06T05:52:31.125Z,21.17
2018-09-06T05:53:31.689Z,21.17
2018-09-06T05:54:31.420Z,21.17
2018-09-06T05:55:31.228Z,21.17
2018-09-06T05:56:31.450Z,21.17
2018-09-06T05:57:31.185Z,21.17
2018-09-06T05:58:31.322Z,21.17
2018-09-06T05:59:32.128Z,21.18
2018-09-06T06:00:31.369Z,21.17
2018-09-06T06:01:31.180Z,21.18
2018-09-06T06:02:31.548Z,21.17
2018-09-06T06:03:31.252Z,21.17
2018-09-06T06:04:31.429Z,21.18
2018-09-06T06:05:31.273Z,21.18
2018-09-06T06:06:31.462Z,21.18
2018-09-06T06:07:31.333Z,21.18
2018-09-06T06:08:31.384Z,21.18
2018-09-06T06:09:31.445Z,21.18
2018-09-06T06:10:31.229Z,21.17
2018-09-06T06:11:31.260Z,21.18
2018-09-06T06:12:31.678Z,21.18
2018-09-06T06:13:31.526Z,21.18
2018-09-06T06:14:31.379Z,21.18
2018-09-06T06:15:31.447Z,21.17
2018-09-06T06:16:31.394Z,21.18
2018-09-06T06:17:31.258Z,21.17
2018-09-06T06:18:31.317Z,21.18
2018-09-06T06:19:31.458Z,21.18
2018-09-06T06:20:31.113Z,21.18
2018-09-06T06:21:31.406Z,21.18
2018-09-06T06:22:31.362Z,21.18
2018-09-06T06:23:31.495Z,21.18
2018-09-06T06:24:31.320Z,21.18
2018-09-06T06:25:31.341Z,21.18
2018-09-06T06:26:31.358Z,21.18
2018-09-06T06:27:31.230Z,21.18
2018-09-06T06:28:31.304Z,21.18
2018-09-06T06:29:31.280Z,21.18
2018-09-06T06:30:31.161Z,21.18
2018-09-06T06:31:31.251Z,21.18
2018-09-06T06:32:31.305Z,21.18
2018-09-06T06:33:31.311Z,21.18
2018-09-06T06:34:31.428Z,21.18
2018-09-06T06:35:31.601Z,21.18
2018-09-06T06:36:31.388Z,21.18
2018-09-06T06:37:31.130Z,21.18
2018-09-06T06:38:31.222Z,21.18
2018-09-06T06:39:31.259Z,21.18
2018-09-06T06:40:31.713Z,21.18
2018-09-06T06:41:31.390Z,21.18
2018-09-06T06:42:31.276Z,21.18
2018-09-06T06:43:31.183Z,21.18
2018-09-06T06:44:31.368Z,21.18
2018-09-06T06:45:31.354Z,21.18
2018-09-06T06:46:31.319Z,21.18
2018-09-06T06:47:31.418Z,21.18
2018-09-06T06:48:31.307Z,21.18
2018-09-06T06:49:31.287Z,21.18
2018-09-06T06:50:32.198Z,21.18
2018-09-06T06:51:31.356Z,21.17
2018-09-06T06:52:31.404Z,21.18
2018-09-06T06:53:31.437Z,21.18
2018-09-06T06:54:31.400Z,21.18
2018-09-06T06:55:32.048Z,21.18
2018-09-06T06:56:31.555Z,21.18
2018-09-06T06:57:31.263Z,21.18
2018-09-06T06:58:31.550Z,21.18
2018-09-06T06:59:31.220Z,21.18
2018-09-06T07:00:31.336Z,21.18
2018-09-06T07:01:31.385Z,21.18
2018-09-06T07:02:31.354Z,21.18
2018-09-06T07:03:31.703Z,21.18
2018-09-06T07:04:31.657Z,21.18
2018-09-06T07:05:31.317Z,21.18
2018-09-06T07:06:31.238Z,21.18
2018-09-06T07:07:31.616Z,21.18
2018-09-06T07:08:31.639Z,21.17
2018-09-06T07:09:31.313Z,21.18
2018-09-06T07:10:31.323Z,21.17
2018-09-06T07:11:31.584Z,21.18
2018-09-06T07:12:31.120Z,21.18
2018-09-06T07:13:31.202Z,21.18
2018-09-06T07:14:31.254Z,21.18
2018-09-06T07:15:31.511Z,21.17
2018-09-06T07:16:31.344Z,21.18
2018-09-06T07:17:31.272Z,21.18
2018-09-06T07:18:32.095Z,21.17
2018-09-06T07:19:31.657Z,21.18
2018-09-06T07:20:31.262Z,21.18
2018-09-06T07:21:31.330Z,21.18
2018-09-06T07:22:31.647Z,21.18
2018-09-06T07:23:31.340Z,21.18
2018-09-06T07:24:31.197Z,21.18
2018-09-06T07:25:31.425Z,21.18
2018-09-06T07:26:31.839Z,21.18
2018-09-06T07:27:31.219Z,21.18
2018-09-06T07:28:31.306Z,21.18
2018-09-06T07:29:31.275Z,21.18
2018-09-06T07:30:31.778Z,21.18
2018-09-06T07:31:31.623Z,21.18
2018-09-06T07:32:31.437Z,21.18
2018-09-06T07:33:31.506Z,21.17
2018-09-06T07:34:31.338Z,21.18
2018-09-06T07:35:31.432Z,21.18
2018-09-06T07:36:31.530Z,21.18
2018-09-06T07:37:31.351Z,21.18
2018-09-06T07:38:31.175Z,21.18
2018-09-06T07:39:31.267Z,21.17
2018-09-06T07:40:31.348Z,21.18
2018-09-06T07:41:32.297Z,21.18
2018-09-06T07:42:31.160Z,21.17
2018-09-06T07:43:31.125Z,21.18
2018-09-06T07:44:31.222Z,21.18
2018-09-06T07:45:31.386Z,21.18
2018-09-06T07:46:31.616Z,21.17
2018-09-06T07:47:31.395Z,21.17
2018-09-06T07:48:31.187Z,21.17
2018-09-06T07:49:31.430Z,21.18
2018-09-06T07:50:31.247Z,21.17
2018-09-06T07:51:32.365Z,21.17
2018-09-06T07:52:31.312Z,21.17
2018-09-06T07:53:31.450Z,21.17
2018-09-06T07:54:31.213Z,21.18
2018-09-06T07:55:31.347Z,21.18
2018-09-06T07:56:31.314Z,21.18
2018-09-06T07:57:31.571Z,21.17
2018-09-06T07:58:31.280Z,21.17
2018-09-06T07:59:31.291Z,21.18
2018-09-06T08:00:31.302Z,21.18
2018-09-06T08:01:31.647Z,21.17
2018-09-06T08:02:31.358Z,21.18
2018-09-06T08:03:31.415Z,21.17
2018-09-06T08:04:31.379Z,21.17
2018-09-06T08:05:31.875Z,21.17
2018-09-06T08:06:31.185Z,21.17
2018-09-06T08:07:31.280Z,21.17
2018-09-06T08:08:31.458Z,21.17
2018-09-06T08:09:31.300Z,21.17
2018-09-06T08:10:31.280Z,21.17
2018-09-06T08:11:31.519Z,21.17
2018-09-06T08:12:31.186Z,21.17
2018-09-06T08:13:31.312Z,21.17
2018-09-06T08:14:31.328Z,21.17
2018-09-06T08:15:31.774Z,21.17
2018-09-06T08:16:31.380Z,21.17
2018-09-06T08:17:31.305Z,21.17
2018-09-06T08:18:31.276Z,21.18
2018-09-06T08:19:31.144Z,21.18
2018-09-06T08:20:31.547Z,21.18
2018-09-06T08:21:31.405Z,21.18
2018-09-06T08:22:31.448Z,21.17
2018-09-06T08:23:31.362Z,21.18
2018-09-06T08:24:31.468Z,21.17
2018-09-06T08:25:31.179Z,21.17
2018-09-06T08:26:31.565Z,21.18
2018-09-06T08:27:31.365Z,21.17
2018-09-06T08:28:31.532Z,21.17
2018-09-06T08:29:31.250Z,21.17
2018-09-06T08:30:31.804Z,21.17
2018-09-06T08:31:31.623Z,21.17
2018-09-06T08:32:31.292Z,21.17
2018-09-06T08:33:31.359Z,21.18
2018-09-06T08:34:31.202Z,21.17
2018-09-06T08:35:31.425Z,21.18
2018-09-06T08:36:31.343Z,21.17
2018-09-06T08:37:31.270Z,21.17
2018-09-06T08:38:31.372Z,21.18
2018-09-06T08:39:31.291Z,21.17
2018-09-06T08:40:31.220Z,21.17
2018-09-06T08:41:31.606Z,21.18
2018-09-06T08:42:31.624Z,21.18
2018-09-06T08:43:31.282Z,21.18
2018-09-06T08:44:31.275Z,21.17
2018-09-06T08:45:32.123Z,21.17
2018-09-06T08:46:31.497Z,21.17
2018-09-06T08:47:31.737Z,21.17
2018-09-06T08:48:31.367Z,21.17
2018-09-06T08:49:31.594Z,21.18
2018-09-06T08:50:31.241Z,21.17
2018-09-06T08:51:31.403Z,21.17
2018-09-06T08:52:32.151Z,21.17
2018-09-06T08:53:31.322Z,21.17
2018-09-06T08:54:31.280Z,21.17
2018-09-06T08:55:31.355Z,21.18
2018-09-06T08:56:31.336Z,21.18
2018-09-06T08:57:31.208Z,21.17
2018-09-06T08:58:31.842Z,21.18
2018-09-06T08:59:31.289Z,21.18
2018-09-06T09:00:31.425Z,21.18
2018-09-06T09:01:31.251Z,21.18
2018-09-06T09:02:31.981Z,21.18
2018-09-06T09:03:31.283Z,21.18
2018-09-06T09:04:31.687Z,21.18
2018-09-06T09:05:31.335Z,21.18
2018-09-06T09:06:31.268Z,21.18
2018-09-06T09:07:31.738Z,21.18
2018-09-06T09:08:31.962Z,21.18
2018-09-06T09:09:31.327Z,21.18
2018-09-06T09:10:31.240Z,21.18
2018-09-06T09:11:31.299Z,21.18
2018-09-06T09:12:32.000Z,21.18
2018-09-06T09:13:31.624Z,21.18
2018-09-06T09:14:31.268Z,21.18
2018-09-06T09:15:31.793Z,21.18
2018-09-06T09:16:31.217Z,21.17
2018-09-06T09:17:31.467Z,21.18
2018-09-06T09:18:31.465Z,21.18
2018-09-06T09:19:31.187Z,21.18
2018-09-06T09:20:31.233Z,21.18
2018-09-06T09:21:31.891Z,21.18
2018-09-06T09:22:31.337Z,21.18
2018-09-06T09:23:31.463Z,21.18
2018-09-06T09:24:31.153Z,21.18
2018-09-06T09:25:31.694Z,21.18
2018-09-06T09:26:31.443Z,21.18
2018-09-06T09:27:31.221Z,21.18
2018-09-06T09:28:31.539Z,21.18
2018-09-06T09:29:31.232Z,21.18
2018-09-06T09:30:31.566Z,21.18
2018-09-06T09:31:31.290Z,21.18
2018-09-06T09:32:31.407Z,21.18
2018-09-06T09:33:31.176Z,21.18
2018-09-06T09:34:31.204Z,21.18
2018-09-06T09:35:31.397Z,21.18
2018-09-06T09:36:31.440Z,21.18
2018-09-06T09:37:31.174Z,21.18
2018-09-06T09:38:31.332Z,21.18
2018-09-06T09:39:31.207Z,21.18
2018-09-06T09:40:31.473Z,21.18
2018-09-06T09:41:31.214Z,21.18
2018-09-06T09:42:31.389Z,21.18
2018-09-06T09:43:31.493Z,21.18
2018-09-06T09:44:31.385Z,21.18
2018-09-06T09:45:31.300Z,21.18
2018-09-06T09:48:31.339Z,21.18
2018-09-06T09:49:31.697Z,21.18
2018-09-06T09:51:31.375Z,21.18
2018-09-06T09:52:31.775Z,21.18
2018-09-06T09:53:31.610Z,21.18
2018-09-06T09:54:31.192Z,21.18
2018-09-06T09:55:31.365Z,21.18
2018-09-06T09:56:31.306Z,21.18
2018-09-06T09:57:31.191Z,21.18
2018-09-06T09:58:31.403Z,21.18
2018-09-06T09:59:31.205Z,21.18
2018-09-06T10:00:31.252Z,21.18
2018-09-06T10:01:31.152Z,21.18
2018-09-06T10:02:31.440Z,21.18
2018-09-06T10:03:31.262Z,21.18
2018-09-06T10:04:31.338Z,21.18
2018-09-06T10:05:31.301Z,21.18
2018-09-06T10:06:31.889Z,21.18
2018-09-06T10:07:31.577Z,21.18
2018-09-06T10:08:31.303Z,21.18
2018-09-06T10:09:31.460Z,21.18
2018-09-06T10:10:31.135Z,21.18
2018-09-06T10:11:31.521Z,21.18
2018-09-06T10:12:31.085Z,21.18
2018-09-06T10:13:31.159Z,21.18
2018-09-06T10:14:31.358Z,21.18
2018-09-06T10:15:31.300Z,21.18
2018-09-06T10:16:31.263Z,21.18
2018-09-06T10:17:31.547Z,21.18
2018-09-06T10:18:31.257Z,21.18
2018-09-06T10:19:31.261Z,21.18
2018-09-06T10:20:31.367Z,21.18
2018-09-06T10:21:31.227Z,21.18
2018-09-06T10:22:31.355Z,21.18
2018-09-06T10:23:31.368Z,21.18
2018-09-06T10:24:31.438Z,21.18
2018-09-06T10:25:31.378Z,21.18
2018-09-06T10:26:31.340Z,21.18
2018-09-06T10:27:31.163Z,21.18
2018-09-06T10:28:31.339Z,21.18
2018-09-06T10:29:31.182Z,21.18
2018-09-06T10:30:31.295Z,21.18
2018-09-06T10:31:31.303Z,21.18
2018-09-06T10:32:31.106Z,21.18
2018-09-06T10:33:31.302Z,21.18
2018-09-06T10:34:31.182Z,21.18
2018-09-06T10:35:31.730Z,21.18
2018-09-06T10:36:31.386Z,21.18
2018-09-06T10:37:31.545Z,21.18
2018-09-06T10:38:31.173Z,21.18
2018-09-06T10:39:31.369Z,21.18
2018-09-06T10:40:31.731Z,21.18
2018-09-06T10:41:31.423Z,21.18
2018-09-06T10:42:31.089Z,21.18
2018-09-06T10:43:31.142Z,21.18
2018-09-06T10:44:31.558Z,21.18
2018-09-06T10:45:31.195Z,21.18
2018-09-06T10:46:31.237Z,21.18
2018-09-06T10:47:31.256Z,21.18
2018-09-06T10:48:31.522Z,21.18
2018-09-06T10:49:31.306Z,21.18
2018-09-06T10:50:31.328Z,21.18
2018-09-06T10:51:31.456Z,21.18
2018-09-06T10:52:31.181Z,21.18
2018-09-06T10:53:31.275Z,21.18
2018-09-06T10:54:31.385Z,21.18
2018-09-06T10:55:31.247Z,21.18
2018-09-06T10:56:31.384Z,21.18
2018-09-06T10:57:31.263Z,21.18
2018-09-06T10:58:31.184Z,21.18
2018-09-06T10:59:31.285Z,21.18
2018-09-06T11:00:31.640Z,21.18
2018-09-06T11:01:31.519Z,21.18
2018-09-06T11:02:31.333Z,21.18
2018-09-06T11:03:31.349Z,21.18
2018-09-06T11:04:32.143Z,21.18
2018-09-06T11:05:31.213Z,21.18
2018-09-06T11:06:31.335Z,21.18
2018-09-06T11:07:31.368Z,21.18
2018-09-06T11:08:31.305Z,21.18
2018-09-06T11:09:31.091Z,21.18
2018-09-06T11:10:31.859Z,21.18
2018-09-06T11:11:31.273Z,21.18
2018-09-06T11:12:31.279Z,21.18
2018-09-06T11:13:31.383Z,21.19
2018-09-06T11:14:31.348Z,21.18
2018-09-06T11:15:31.302Z,21.19
2018-09-06T11:16:31.252Z,21.19
2018-09-06T11:17:31.319Z,21.18
2018-09-06T11:18:31.538Z,21.18
2018-09-06T11:19:31.452Z,21.18
2018-09-06T11:20:31.547Z,21.19
2018-09-06T11:21:31.937Z,21.19
2018-09-06T11:22:34.030Z,21.18
2018-09-06T11:23:31.595Z,21.19
2018-09-06T11:24:31.373Z,21.19
2018-09-06T11:25:31.262Z,21.18
2018-09-06T11:26:31.206Z,21.19
2018-09-06T11:27:31.818Z,21.18
2018-09-06T11:28:31.617Z,21.18
2018-09-06T11:29:31.319Z,21.19
2018-09-06T11:30:31.156Z,21.19
2018-09-06T11:31:31.342Z,21.19
2018-09-06T11:32:31.142Z,21.19
2018-09-06T11:33:31.249Z,21.19
2018-09-06T11:34:31.469Z,21.19
2018-09-06T11:35:31.315Z,21.19
2018-09-06T11:36:31.435Z,21.19
2018-09-06T11:37:31.349Z,21.19
2018-09-06T11:38:31.341Z,21.19
2018-09-06T11:39:31.216Z,21.19
2018-09-06T11:40:32.317Z,21.2
2018-09-06T11:41:31.462Z,21.2
2018-09-06T11:42:31.111Z,21.2
2018-09-06T11:43:31.773Z,21.2
2018-09-06T11:44:31.329Z,21.2
2018-09-06T11:45:31.189Z,21.2
2018-09-06T11:46:31.302Z,21.2
2018-09-06T11:47:31.438Z,21.2
2018-09-06T11:48:31.393Z,21.2
2018-09-06T11:49:31.364Z,21.2
2018-09-06T11:50:31.281Z,21.2
2018-09-06T11:51:31.246Z,21.2
2018-09-06T11:52:31.312Z,21.2
2018-09-06T11:53:31.124Z,21.2
2018-09-06T11:54:31.297Z,21.2
2018-09-06T11:55:31.389Z,21.2
2018-09-06T11:56:31.371Z,21.2
2018-09-06T11:57:31.271Z,21.2
2018-09-06T11:58:31.256Z,21.2
2018-09-06T11:59:31.152Z,21.2
2018-09-06T12:00:31.153Z,21.2
2018-09-06T12:01:31.220Z,21.2
2018-09-06T12:02:31.356Z,21.2
2018-09-06T12:03:31.498Z,21.2
2018-09-06T12:04:34.189Z,21.2
2018-09-06T12:05:31.337Z,21.2
2018-09-06T12:06:31.311Z,21.2
2018-09-06T12:07:31.438Z,21.2
2018-09-06T12:08:31.154Z,21.2
2018-09-06T12:09:31.135Z,21.2
2018-09-06T12:10:31.166Z,21.2
2018-09-06T12:11:31.219Z,21.2
2018-09-06T12:12:31.387Z,21.2
2018-09-06T12:13:31.158Z,21.2
2018-09-06T12:14:31.210Z,21.2
2018-09-06T12:15:31.161Z,21.2
2018-09-06T12:16:31.230Z,21.2
2018-09-06T12:17:31.266Z,21.2
2018-09-06T12:18:31.333Z,21.2
2018-09-06T12:19:31.786Z,21.2
2018-09-06T12:20:31.394Z,21.2
2018-09-06T12:21:31.159Z,21.2
2018-09-06T12:22:31.235Z,21.2
2018-09-06T12:23:31.303Z,21.2
2018-09-06T12:24:31.450Z,21.2
2018-09-06T12:25:31.698Z,21.2
2018-09-06T12:26:31.409Z,21.2
2018-09-06T12:27:31.377Z,21.2
2018-09-06T12:28:31.381Z,21.2
2018-09-06T12:29:31.160Z,21.2
2018-09-06T12:30:31.257Z,21.17
2018-09-06T12:31:31.126Z,21.19
2018-09-06T12:32:31.682Z,21.2
2018-09-06T12:33:31.681Z,21.22
2018-09-06T12:34:31.406Z,21.24
2018-09-06T12:35:31.246Z,21.2
2018-09-06T12:36:31.332Z,21.22
2018-09-06T12:37:31.196Z,21.23
2018-09-06T12:38:31.348Z,21.24
2018-09-06T12:39:31.610Z,21.24
2018-09-06T12:40:31.165Z,21.25
2018-09-06T12:41:31.284Z,21.26
2018-09-06T12:42:31.182Z,21.27
2018-09-06T12:43:31.466Z,21.27
2018-09-06T12:44:31.304Z,21.29
2018-09-06T12:45:31.207Z,21.29
2018-09-06T12:46:31.179Z,21.29
2018-09-06T12:47:31.324Z,21.3
2018-09-06T12:48:31.121Z,21.3
2018-09-06T12:49:31.594Z,21.31
2018-09-06T12:50:31.393Z,21.32
2018-09-06T12:51:31.424Z,21.33
2018-09-06T12:52:31.357Z,21.34
2018-09-06T12:53:31.398Z,21.35
2018-09-06T12:54:31.360Z,21.35
2018-09-06T12:55:31.351Z,21.36
2018-09-06T12:56:31.417Z,21.36
2018-09-06T12:57:31.124Z,21.36